sensor_id;sensor_type;location;lat;lon;timestamp;temperature;humidity
6520;DHT22;3293;51.690;5.982;2023-11-21T00:02:21;8.30;99.90
6520;DHT22;3293;51.690;5.982;2023-11-21T00:07:20;8.30;99.90
6520;DHT22;3293;51.690;5.982;2023-11-21T00:12:21;8.30;99.90
6520;DHT22;3293;51.690;5.982;2023-11-21T00:17:21;8.30;99.90
6520;DHT22;3293;51.690;5.982;2023-11-21T00:22:21;8.40;99.90
6520;DHT22;3293;51.690;5.982;2023-11-21T00:27:20;8.30;99.90
6520;DHT22;3293;51.690;5.982;2023-11-21T00:32:20;8.30;99.90
6520;DHT22;3293;51.690;5.982;2023-11-21T00:37:20;8.30;99.90
6520;DHT22;3293;51.690;5.982;2023-11-21T00:42:20;8.30;99.90
6520;DHT22;3293;51.690;5.982;2023-11-21T00:47:21;8.40;99.90
6520;DHT22;3293;51.690;5.982;2023-11-21T00:52:22;8.30;99.90
6520;DHT22;3293;51.690;5.982;2023-11-21T00:57:22;8.40;99.90
6520;DHT22;3293;51.690;5.982;2023-11-21T01:02:22;8.40;99.90
6520;DHT22;3293;51.690;5.982;2023-11-21T01:07:21;8.40;99.90
6520;DHT22;3293;51.690;5.982;2023-11-21T01:12:22;8.40;99.90
6520;DHT22;3293;51.690;5.982;2023-11-21T01:17:24;8.50;99.90
6520;DHT22;3293;51.690;5.982;2023-11-21T01:22:29;8.50;99.90
6520;DHT22;3293;51.690;5.982;2023-11-21T01:27:29;8.60;99.90
6520;DHT22;3293;51.690;5.982;2023-11-21T01:32:29;8.50;99.90
6520;DHT22;3293;51.690;5.982;2023-11-21T01:37:29;8.60;99.90
6520;DHT22;3293;51.690;5.982;2023-11-21T01:42:30;8.60;99.90
6520;DHT22;3293;51.690;5.982;2023-11-21T01:47:31;8.60;99.90
6520;DHT22;3293;51.690;5.982;2023-11-21T01:52:36;8.60;99.90
6520;DHT22;3293;51.690;5.982;2023-11-21T01:57:36;8.60;99.90
6520;DHT22;3293;51.690;5.982;2023-11-21T02:02:39;8.70;99.90
6520;DHT22;3293;51.690;5.982;2023-11-21T02:07:40;8.60;99.90
6520;DHT22;3293;51.690;5.982;2023-11-21T02:12:43;8.60;99.90
6520;DHT22;3293;51.690;5.982;2023-11-21T02:17:44;8.60;99.90
6520;DHT22;3293;51.690;5.982;2023-11-21T02:22:51;8.60;99.90
6520;DHT22;3293;51.690;5.982;2023-11-21T02:28:00;8.50;99.90
6520;DHT22;3293;51.690;5.982;2023-11-21T02:33:01;8.60;99.90
6520;DHT22;3293;51.690;5.982;2023-11-21T02:38:01;8.60;99.90
6520;DHT22;3293;51.690;5.982;2023-11-21T02:43:01;8.50;99.90
6520;DHT22;3293;51.690;5.982;2023-11-21T02:48:01;8.60;99.90
6520;DHT22;3293;51.690;5.982;2023-11-21T02:53:01;8.60;99.90
6520;DHT22;3293;51.690;5.982;2023-11-21T02:58:02;8.50;99.90
6520;DHT22;3293;51.690;5.982;2023-11-21T03:03:03;8.50;99.90
6520;DHT22;3293;51.690;5.982;2023-11-21T03:08:04;8.50;99.90
6520;DHT22;3293;51.690;5.982;2023-11-21T03:13:03;8.40;99.90
6520;DHT22;3293;51.690;5.982;2023-11-21T03:18:04;8.40;99.90
6520;DHT22;3293;51.690;5.982;2023-11-21T03:23:04;8.40;99.90
6520;DHT22;3293;51.690;5.982;2023-11-21T03:28:04;8.40;99.90
6520;DHT22;3293;51.690;5.982;2023-11-21T03:33:04;8.30;99.90
6520;DHT22;3293;51.690;5.982;2023-11-21T03:38:04;8.30;99.90
6520;DHT22;3293;51.690;5.982;2023-11-21T03:43:04;8.30;99.90
6520;DHT22;3293;51.690;5.982;2023-11-21T03:48:04;8.30;99.90
6520;DHT22;3293;51.690;5.982;2023-11-21T03:53:04;8.30;99.90
6520;DHT22;3293;51.690;5.982;2023-11-21T03:58:04;8.30;99.90
6520;DHT22;3293;51.690;5.982;2023-11-21T04:03:04;8.20;99.90
6520;DHT22;3293;51.690;5.982;2023-11-21T04:08:04;8.30;99.90
6520;DHT22;3293;51.690;5.982;2023-11-21T04:13:04;8.30;99.90
6520;DHT22;3293;51.690;5.982;2023-11-21T04:18:05;8.30;99.90
6520;DHT22;3293;51.690;5.982;2023-11-21T04:23:04;8.20;99.90
6520;DHT22;3293;51.690;5.982;2023-11-21T04:28:04;8.20;99.90
6520;DHT22;3293;51.690;5.982;2023-11-21T04:33:04;8.20;99.90
6520;DHT22;3293;51.690;5.982;2023-11-21T04:38:04;8.20;99.90
6520;DHT22;3293;51.690;5.982;2023-11-21T04:43:04;8.20;99.90
6520;DHT22;3293;51.690;5.982;2023-11-21T04:48:04;8.10;99.90
6520;DHT22;3293;51.690;5.982;2023-11-21T04:53:06;8.20;99.90
6520;DHT22;3293;51.690;5.982;2023-11-21T04:58:06;8.20;99.90
6520;DHT22;3293;51.690;5.982;2023-11-21T05:03:06;8.20;99.90
6520;DHT22;3293;51.690;5.982;2023-11-21T05:08:06;8.30;99.90
6520;DHT22;3293;51.690;5.982;2023-11-21T05:13:06;8.30;99.90
6520;DHT22;3293;51.690;5.982;2023-11-21T05:18:10;8.20;99.90
6520;DHT22;3293;51.690;5.982;2023-11-21T05:23:10;8.20;99.90
6520;DHT22;3293;51.690;5.982;2023-11-21T05:28:10;8.10;99.90
6520;DHT22;3293;51.690;5.982;2023-11-21T05:33:10;8.10;99.90
6520;DHT22;3293;51.690;5.982;2023-11-21T05:38:10;8.10;99.90
6520;DHT22;3293;51.690;5.982;2023-11-21T05:43:10;8.20;99.90
6520;DHT22;3293;51.690;5.982;2023-11-21T05:48:11;8.10;99.90
6520;DHT22;3293;51.690;5.982;2023-11-21T05:53:12;8.10;99.90
6520;DHT22;3293;51.690;5.982;2023-11-21T05:58:12;8.10;99.90
6520;DHT22;3293;51.690;5.982;2023-11-21T06:03:13;8.00;99.90
6520;DHT22;3293;51.690;5.982;2023-11-21T06:08:13;8.00;99.90
6520;DHT22;3293;51.690;5.982;2023-11-21T06:13:13;8.00;99.90
6520;DHT22;3293;51.690;5.982;2023-11-21T06:18:12;8.00;99.90
6520;DHT22;3293;51.690;5.982;2023-11-21T06:23:12;8.00;99.90
6520;DHT22;3293;51.690;5.982;2023-11-21T06:28:13;8.00;99.90
6520;DHT22;3293;51.690;5.982;2023-11-21T06:33:17;8.00;99.90
6520;DHT22;3293;51.690;5.982;2023-11-21T06:38:17;8.00;99.90
6520;DHT22;3293;51.690;5.982;2023-11-21T06:43:17;8.00;99.90
6520;DHT22;3293;51.690;5.982;2023-11-21T06:48:17;8.00;99.90
6520;DHT22;3293;51.690;5.982;2023-11-21T06:53:17;8.00;99.90
6520;DHT22;3293;51.690;5.982;2023-11-21T06:58:17;8.00;99.90
6520;DHT22;3293;51.690;5.982;2023-11-21T07:03:17;8.00;99.90
6520;DHT22;3293;51.690;5.982;2023-11-21T07:08:18;8.00;99.90
6520;DHT22;3293;51.690;5.982;2023-11-21T07:13:18;8.10;99.90
6520;DHT22;3293;51.690;5.982;2023-11-21T07:18:18;8.10;99.90
6520;DHT22;3293;51.690;5.982;2023-11-21T07:23:18;8.10;99.90
6520;DHT22;3293;51.690;5.982;2023-11-21T07:28:18;8.10;99.90
6520;DHT22;3293;51.690;5.982;2023-11-21T07:33:18;8.10;99.90
6520;DHT22;3293;51.690;5.982;2023-11-21T07:38:18;8.10;99.90
6520;DHT22;3293;51.690;5.982;2023-11-21T07:43:18;8.10;99.90
6520;DHT22;3293;51.690;5.982;2023-11-21T07:48:19;8.20;99.90
6520;DHT22;3293;51.690;5.982;2023-11-21T07:53:19;8.30;99.90
6520;DHT22;3293;51.690;5.982;2023-11-21T07:58:19;8.30;99.90
6520;DHT22;3293;51.690;5.982;2023-11-21T08:03:19;8.30;99.90
6520;DHT22;3293;51.690;5.982;2023-11-21T08:08:19;8.40;99.90
6520;DHT22;3293;51.690;5.982;2023-11-21T08:13:18;8.40;99.90
6520;DHT22;3293;51.690;5.982;2023-11-21T08:18:19;8.30;99.90
6520;DHT22;3293;51.690;5.982;2023-11-21T08:23:19;8.40;99.90
6520;DHT22;3293;51.690;5.982;2023-11-21T08:28:19;8.40;99.90
6520;DHT22;3293;51.690;5.982;2023-11-21T08:33:20;8.40;99.90
6520;DHT22;3293;51.690;5.982;2023-11-21T08:38:19;8.50;99.90
6520;DHT22;3293;51.690;5.982;2023-11-21T08:43:19;8.50;99.90
6520;DHT22;3293;51.690;5.982;2023-11-21T08:48:19;8.50;99.90
6520;DHT22;3293;51.690;5.982;2023-11-21T08:53:19;8.50;99.90
6520;DHT22;3293;51.690;5.982;2023-11-21T08:58:19;8.60;99.90
6520;DHT22;3293;51.690;5.982;2023-11-21T09:03:19;8.80;99.90
6520;DHT22;3293;51.690;5.982;2023-11-21T09:08:19;8.90;99.90
6520;DHT22;3293;51.690;5.982;2023-11-21T09:13:21;8.90;99.90
6520;DHT22;3293;51.690;5.982;2023-11-21T09:18:22;8.90;99.90
6520;DHT22;3293;51.690;5.982;2023-11-21T09:23:21;9.10;99.90
6520;DHT22;3293;51.690;5.982;2023-11-21T09:28:21;9.30;99.90
6520;DHT22;3293;51.690;5.982;2023-11-21T09:33:21;9.40;99.90
6520;DHT22;3293;51.690;5.982;2023-11-21T09:38:24;9.50;99.90
6520;DHT22;3293;51.690;5.982;2023-11-21T09:43:25;9.50;99.90
6520;DHT22;3293;51.690;5.982;2023-11-21T09:48:27;9.50;99.90
6520;DHT22;3293;51.690;5.982;2023-11-21T09:53:31;9.60;99.90
6520;DHT22;3293;51.690;5.982;2023-11-21T09:58:33;9.70;99.90
6520;DHT22;3293;51.690;5.982;2023-11-21T10:03:35;9.60;99.90
6520;DHT22;3293;51.690;5.982;2023-11-21T10:08:37;9.70;99.90
6520;DHT22;3293;51.690;5.982;2023-11-21T10:13:37;9.70;99.90
6520;DHT22;3293;51.690;5.982;2023-11-21T10:18:38;9.50;99.90
6520;DHT22;3293;51.690;5.982;2023-11-21T10:23:40;9.50;99.90
6520;DHT22;3293;51.690;5.982;2023-11-21T10:28:40;9.70;99.90
6520;DHT22;3293;51.690;5.982;2023-11-21T10:33:41;9.80;99.90
6520;DHT22;3293;51.690;5.982;2023-11-21T10:38:44;9.90;99.90
6520;DHT22;3293;51.690;5.982;2023-11-21T10:43:45;10.10;99.90
6520;DHT22;3293;51.690;5.982;2023-11-21T10:48:45;10.30;99.90
6520;DHT22;3293;51.690;5.982;2023-11-21T10:53:45;10.20;99.90
6520;DHT22;3293;51.690;5.982;2023-11-21T10:58:45;10.20;99.90
6520;DHT22;3293;51.690;5.982;2023-11-21T11:03:46;10.30;99.90
6520;DHT22;3293;51.690;5.982;2023-11-21T11:08:47;10.30;99.90
6520;DHT22;3293;51.690;5.982;2023-11-21T11:13:48;10.30;99.90
6520;DHT22;3293;51.690;5.982;2023-11-21T11:18:48;10.30;99.90
6520;DHT22;3293;51.690;5.982;2023-11-21T11:34:54;10.80;99.90
6520;DHT22;3293;51.690;5.982;2023-11-21T11:39:52;10.80;99.90
6520;DHT22;3293;51.690;5.982;2023-11-21T11:44:54;10.80;99.90
6520;DHT22;3293;51.690;5.982;2023-11-21T11:50:02;10.80;99.90
6520;DHT22;3293;51.690;5.982;2023-11-21T11:55:20;10.90;99.90
6520;DHT22;3293;51.690;5.982;2023-11-21T12:05:26;10.80;99.90
6520;DHT22;3293;51.690;5.982;2023-11-21T12:10:34;10.70;99.90
6520;DHT22;3293;51.690;5.982;2023-11-21T12:15:35;10.50;99.90
6520;DHT22;3293;51.690;5.982;2023-11-21T12:20:35;10.50;99.90
6520;DHT22;3293;51.690;5.982;2023-11-21T12:25:38;10.50;99.90
6520;DHT22;3293;51.690;5.982;2023-11-21T12:30:39;10.30;99.90
6520;DHT22;3293;51.690;5.982;2023-11-21T12:35:39;10.30;99.90
6520;DHT22;3293;51.690;5.982;2023-11-21T12:40:39;10.30;99.90
6520;DHT22;3293;51.690;5.982;2023-11-21T12:45:39;10.30;99.90
6520;DHT22;3293;51.690;5.982;2023-11-21T12:50:39;10.50;99.90
6520;DHT22;3293;51.690;5.982;2023-11-21T12:55:39;10.50;99.90
6520;DHT22;3293;51.690;5.982;2023-11-21T13:00:43;10.50;99.90
6520;DHT22;3293;51.690;5.982;2023-11-21T13:05:45;10.50;99.90
6520;DHT22;3293;51.690;5.982;2023-11-21T13:10:46;10.50;99.90
6520;DHT22;3293;51.690;5.982;2023-11-21T13:15:55;10.50;99.90
6520;DHT22;3293;51.690;5.982;2023-11-21T13:20:57;10.60;99.90
6520;DHT22;3293;51.690;5.982;2023-11-21T13:25:57;10.60;99.90
6520;DHT22;3293;51.690;5.982;2023-11-21T13:30:57;10.60;99.90
6520;DHT22;3293;51.690;5.982;2023-11-21T13:36:03;10.60;99.90
6520;DHT22;3293;51.690;5.982;2023-11-21T13:41:07;10.50;99.90
6520;DHT22;3293;51.690;5.982;2023-11-21T13:46:08;10.40;99.90
6520;DHT22;3293;51.690;5.982;2023-11-21T13:51:14;10.30;99.90
6520;DHT22;3293;51.690;5.982;2023-11-21T13:56:17;10.20;99.90
6520;DHT22;3293;51.690;5.982;2023-11-21T14:01:23;10.20;99.90
6520;DHT22;3293;51.690;5.982;2023-11-21T14:06:29;10.00;99.90
6520;DHT22;3293;51.690;5.982;2023-11-21T14:11:36;10.00;99.90
6520;DHT22;3293;51.690;5.982;2023-11-21T14:16:37;10.00;99.90
6520;DHT22;3293;51.690;5.982;2023-11-21T14:21:37;10.00;99.90
6520;DHT22;3293;51.690;5.982;2023-11-21T14:26:42;10.10;99.90
6520;DHT22;3293;51.690;5.982;2023-11-21T14:31:42;10.10;99.90
6520;DHT22;3293;51.690;5.982;2023-11-21T14:36:43;10.10;99.90
6520;DHT22;3293;51.690;5.982;2023-11-21T14:41:44;10.20;99.90
6520;DHT22;3293;51.690;5.982;2023-11-21T14:46:44;10.10;99.90
6520;DHT22;3293;51.690;5.982;2023-11-21T14:51:52;10.10;99.90
6520;DHT22;3293;51.690;5.982;2023-11-21T14:57:02;10.00;99.90
6520;DHT22;3293;51.690;5.982;2023-11-21T15:02:02;10.00;99.90
6520;DHT22;3293;51.690;5.982;2023-11-21T15:07:14;10.00;99.90
6520;DHT22;3293;51.690;5.982;2023-11-21T15:12:14;10.00;99.90
6520;DHT22;3293;51.690;5.982;2023-11-21T15:17:15;10.00;99.90
6520;DHT22;3293;51.690;5.982;2023-11-21T15:22:22;10.00;99.90
6520;DHT22;3293;51.690;5.982;2023-11-21T15:27:23;9.90;99.90
6520;DHT22;3293;51.690;5.982;2023-11-21T15:32:24;9.90;99.90
6520;DHT22;3293;51.690;5.982;2023-11-21T15:37:23;9.80;99.90
6520;DHT22;3293;51.690;5.982;2023-11-21T15:42:25;9.70;99.90
6520;DHT22;3293;51.690;5.982;2023-11-21T15:47:26;9.60;99.90
6520;DHT22;3293;51.690;5.982;2023-11-21T15:52:26;9.40;99.90
6520;DHT22;3293;51.690;5.982;2023-11-21T15:57:28;9.40;99.90
6520;DHT22;3293;51.690;5.982;2023-11-21T16:02:28;9.40;99.90
6520;DHT22;3293;51.690;5.982;2023-11-21T16:07:30;9.40;99.90
6520;DHT22;3293;51.690;5.982;2023-11-21T16:12:30;9.50;99.90
6520;DHT22;3293;51.690;5.982;2023-11-21T16:17:29;9.30;99.90
6520;DHT22;3293;51.690;5.982;2023-11-21T16:22:29;9.20;99.90
6520;DHT22;3293;51.690;5.982;2023-11-21T16:27:31;9.00;99.90
6520;DHT22;3293;51.690;5.982;2023-11-21T16:32:31;8.90;99.90
6520;DHT22;3293;51.690;5.982;2023-11-21T16:37:32;8.90;99.90
6520;DHT22;3293;51.690;5.982;2023-11-21T16:42:31;8.80;99.90
6520;DHT22;3293;51.690;5.982;2023-11-21T16:47:33;8.70;99.90
6520;DHT22;3293;51.690;5.982;2023-11-21T16:52:33;8.70;99.90
6520;DHT22;3293;51.690;5.982;2023-11-21T16:57:33;8.60;99.90
6520;DHT22;3293;51.690;5.982;2023-11-21T17:02:33;8.50;99.90
6520;DHT22;3293;51.690;5.982;2023-11-21T17:07:33;8.50;99.90
6520;DHT22;3293;51.690;5.982;2023-11-21T17:12:33;8.50;99.90
6520;DHT22;3293;51.690;5.982;2023-11-21T17:17:33;8.40;99.90
6520;DHT22;3293;51.690;5.982;2023-11-21T17:22:33;8.40;99.90
6520;DHT22;3293;51.690;5.982;2023-11-21T17:27:34;8.40;99.90
6520;DHT22;3293;51.690;5.982;2023-11-21T17:32:33;8.40;99.90
6520;DHT22;3293;51.690;5.982;2023-11-21T17:37:34;8.40;99.90
6520;DHT22;3293;51.690;5.982;2023-11-21T17:42:34;8.30;99.90
6520;DHT22;3293;51.690;5.982;2023-11-21T17:47:34;8.20;99.90
6520;DHT22;3293;51.690;5.982;2023-11-21T17:52:34;8.10;99.90
6520;DHT22;3293;51.690;5.982;2023-11-21T17:57:34;7.80;99.90
6520;DHT22;3293;51.690;5.982;2023-11-21T18:02:35;7.70;99.90
6520;DHT22;3293;51.690;5.982;2023-11-21T18:07:35;7.60;99.90
6520;DHT22;3293;51.690;5.982;2023-11-21T18:12:36;7.40;99.90
6520;DHT22;3293;51.690;5.982;2023-11-21T18:17:36;7.30;99.90
6520;DHT22;3293;51.690;5.982;2023-11-21T18:22:35;7.30;99.90
6520;DHT22;3293;51.690;5.982;2023-11-21T18:27:35;7.10;99.90
6520;DHT22;3293;51.690;5.982;2023-11-21T18:32:35;7.10;99.90
6520;DHT22;3293;51.690;5.982;2023-11-21T18:37:36;7.00;99.90
6520;DHT22;3293;51.690;5.982;2023-11-21T18:42:36;6.90;99.90
6520;DHT22;3293;51.690;5.982;2023-11-21T18:47:36;6.80;99.90
6520;DHT22;3293;51.690;5.982;2023-11-21T18:52:36;6.90;99.90
6520;DHT22;3293;51.690;5.982;2023-11-21T18:57:36;6.90;99.90
6520;DHT22;3293;51.690;5.982;2023-11-21T19:02:36;7.00;99.90
6520;DHT22;3293;51.690;5.982;2023-11-21T19:07:36;7.10;99.90
6520;DHT22;3293;51.690;5.982;2023-11-21T19:12:36;7.10;99.90
6520;DHT22;3293;51.690;5.982;2023-11-21T19:17:38;7.20;99.90
6520;DHT22;3293;51.690;5.982;2023-11-21T19:22:38;7.20;99.90
6520;DHT22;3293;51.690;5.982;2023-11-21T19:27:39;7.00;99.90
6520;DHT22;3293;51.690;5.982;2023-11-21T19:32:39;6.80;99.90
6520;DHT22;3293;51.690;5.982;2023-11-21T19:37:38;6.80;99.90
6520;DHT22;3293;51.690;5.982;2023-11-21T19:42:39;6.60;99.90
6520;DHT22;3293;51.690;5.982;2023-11-21T19:47:39;6.50;99.90
6520;DHT22;3293;51.690;5.982;2023-11-21T19:52:39;6.50;99.90
6520;DHT22;3293;51.690;5.982;2023-11-21T19:57:39;6.40;99.90
6520;DHT22;3293;51.690;5.982;2023-11-21T20:02:40;6.30;99.90
6520;DHT22;3293;51.690;5.982;2023-11-21T20:07:43;6.30;99.90
6520;DHT22;3293;51.690;5.982;2023-11-21T20:12:43;6.20;99.90
6520;DHT22;3293;51.690;5.982;2023-11-21T20:17:43;6.10;99.90
6520;DHT22;3293;51.690;5.982;2023-11-21T20:22:43;6.10;99.90
6520;DHT22;3293;51.690;5.982;2023-11-21T20:27:48;6.10;99.90
6520;DHT22;3293;51.690;5.982;2023-11-21T20:32:51;6.10;99.90
6520;DHT22;3293;51.690;5.982;2023-11-21T20:37:51;6.00;99.90
6520;DHT22;3293;51.690;5.982;2023-11-21T20:42:51;6.00;99.90
6520;DHT22;3293;51.690;5.982;2023-11-21T20:47:51;5.90;99.90
6520;DHT22;3293;51.690;5.982;2023-11-21T20:52:51;5.90;99.90
6520;DHT22;3293;51.690;5.982;2023-11-21T20:57:51;5.80;99.90
6520;DHT22;3293;51.690;5.982;2023-11-21T21:02:52;5.70;99.90
6520;DHT22;3293;51.690;5.982;2023-11-21T21:07:53;5.60;99.90
6520;DHT22;3293;51.690;5.982;2023-11-21T21:12:55;5.50;99.90
6520;DHT22;3293;51.690;5.982;2023-11-21T21:22:57;5.40;99.90
6520;DHT22;3293;51.690;5.982;2023-11-21T21:27:57;5.30;99.90
6520;DHT22;3293;51.690;5.982;2023-11-21T21:32:57;5.20;99.90
6520;DHT22;3293;51.690;5.982;2023-11-21T21:37:59;5.10;99.90
6520;DHT22;3293;51.690;5.982;2023-11-21T21:42:59;5.00;99.90
6520;DHT22;3293;51.690;5.982;2023-11-21T21:48:00;4.90;99.90
6520;DHT22;3293;51.690;5.982;2023-11-21T21:53:00;4.80;99.90
6520;DHT22;3293;51.690;5.982;2023-11-21T21:58:01;4.70;99.90
6520;DHT22;3293;51.690;5.982;2023-11-21T22:03:01;4.70;99.90
6520;DHT22;3293;51.690;5.982;2023-11-21T22:08:04;4.60;99.90
6520;DHT22;3293;51.690;5.982;2023-11-21T22:13:03;4.60;99.90
6520;DHT22;3293;51.690;5.982;2023-11-21T22:18:03;4.50;99.90
6520;DHT22;3293;51.690;5.982;2023-11-21T22:23:03;4.50;99.90
6520;DHT22;3293;51.690;5.982;2023-11-21T22:28:04;4.50;99.90
6520;DHT22;3293;51.690;5.982;2023-11-21T22:33:04;4.40;99.90
6520;DHT22;3293;51.690;5.982;2023-11-21T22:38:04;4.40;99.90
6520;DHT22;3293;51.690;5.982;2023-11-21T22:43:04;4.30;99.90
6520;DHT22;3293;51.690;5.982;2023-11-21T22:48:05;4.30;99.90
6520;DHT22;3293;51.690;5.982;2023-11-21T22:53:05;4.20;99.90
6520;DHT22;3293;51.690;5.982;2023-11-21T22:58:05;4.20;99.90
6520;DHT22;3293;51.690;5.982;2023-11-21T23:03:06;4.20;99.90
6520;DHT22;3293;51.690;5.982;2023-11-21T23:08:07;4.10;99.90
6520;DHT22;3293;51.690;5.982;2023-11-21T23:13:09;4.00;99.90
6520;DHT22;3293;51.690;5.982;2023-11-21T23:18:09;4.00;99.90
6520;DHT22;3293;51.690;5.982;2023-11-21T23:23:09;4.00;99.90
6520;DHT22;3293;51.690;5.982;2023-11-21T23:28:08;4.00;99.90
6520;DHT22;3293;51.690;5.982;2023-11-21T23:33:08;4.00;99.90
6520;DHT22;3293;51.690;5.982;2023-11-21T23:38:09;4.00;99.90
6520;DHT22;3293;51.690;5.982;2023-11-21T23:43:09;4.00;99.90
6520;DHT22;3293;51.690;5.982;2023-11-21T23:48:08;3.90;99.90
6520;DHT22;3293;51.690;5.982;2023-11-21T23:53:08;3.90;99.90
6520;DHT22;3293;51.690;5.982;2023-11-21T23:58:08;3.90;99.90
